sensor_id;sensor_type;location;lat;lon;timestamp;temperature;humidity
57624;SHT30;43448;52.264;20.644;2023-03-01T00:00:02;24.23;27.17
57624;SHT30;43448;52.264;20.644;2023-03-01T00:10:01;24.22;27.50
57624;SHT30;43448;52.264;20.644;2023-03-01T00:20:01;24.29;27.30
57624;SHT30;43448;52.264;20.644;2023-03-01T00:30:01;24.30;26.99
57624;SHT30;43448;52.264;20.644;2023-03-01T00:40:01;24.33;26.72
57624;SHT30;43448;52.264;20.644;2023-03-01T00:50:01;24.33;26.92
57624;SHT30;43448;52.264;20.644;2023-03-01T01:00:01;24.35;27.25
57624;SHT30;43448;52.264;20.644;2023-03-01T01:10:01;24.29;27.25
57624;SHT30;43448;52.264;20.644;2023-03-01T01:20:01;24.28;27.79
57624;SHT30;43448;52.264;20.644;2023-03-01T01:30:01;24.32;27.58
57624;SHT30;43448;52.264;20.644;2023-03-01T01:40:02;24.35;27.77
57624;SHT30;43448;52.264;20.644;2023-03-01T01:50:01;24.39;27.40
57624;SHT30;43448;52.264;20.644;2023-03-01T02:00:05;24.40;27.48
57624;SHT30;43448;52.264;20.644;2023-03-01T02:10:02;24.38;27.77
57624;SHT30;43448;52.264;20.644;2023-03-01T02:20:10;24.43;27.64
57624;SHT30;43448;52.264;20.644;2023-03-01T02:30:01;24.46;27.74
57624;SHT30;43448;52.264;20.644;2023-03-01T02:40:04;24.49;27.59
57624;SHT30;43448;52.264;20.644;2023-03-01T02:50:01;24.50;27.42
57624;SHT30;43448;52.264;20.644;2023-03-01T03:00:21;24.56;27.17
57624;SHT30;43448;52.264;20.644;2023-03-01T03:10:02;24.59;27.13
57624;SHT30;43448;52.264;20.644;2023-03-01T03:20:01;24.62;27.46
57624;SHT30;43448;52.264;20.644;2023-03-01T03:30:01;24.63;27.53
57624;SHT30;43448;52.264;20.644;2023-03-01T03:40:01;24.62;27.56
57624;SHT30;43448;52.264;20.644;2023-03-01T03:50:01;24.64;27.59
57624;SHT30;43448;52.264;20.644;2023-03-01T04:00:01;24.63;27.57
57624;SHT30;43448;52.264;20.644;2023-03-01T04:10:01;24.56;27.62
57624;SHT30;43448;52.264;20.644;2023-03-01T04:20:01;24.60;27.81
57624;SHT30;43448;52.264;20.644;2023-03-01T04:30:02;24.59;26.70
57624;SHT30;43448;52.264;20.644;2023-03-01T04:40:01;24.60;25.98
57624;SHT30;43448;52.264;20.644;2023-03-01T04:50:01;24.56;25.76
57624;SHT30;43448;52.264;20.644;2023-03-01T05:00:01;24.46;25.97
57624;SHT30;43448;52.264;20.644;2023-03-01T05:10:01;24.44;26.99
57624;SHT30;43448;52.264;20.644;2023-03-01T05:20:01;24.49;27.14
57624;SHT30;43448;52.264;20.644;2023-03-01T05:30:01;24.52;27.44
57624;SHT30;43448;52.264;20.644;2023-03-01T05:40:01;24.52;27.44
57624;SHT30;43448;52.264;20.644;2023-03-01T05:50:01;24.53;27.49
57624;SHT30;43448;52.264;20.644;2023-03-01T06:00:01;24.53;27.43
57624;SHT30;43448;52.264;20.644;2023-03-01T06:10:01;24.52;27.36
57624;SHT30;43448;52.264;20.644;2023-03-01T06:20:01;24.52;27.25
57624;SHT30;43448;52.264;20.644;2023-03-01T06:30:01;24.49;27.17
57624;SHT30;43448;52.264;20.644;2023-03-01T06:40:01;24.44;27.09
57624;SHT30;43448;52.264;20.644;2023-03-01T06:50:01;24.44;26.98
57624;SHT30;43448;52.264;20.644;2023-03-01T07:00:01;24.39;26.83
57624;SHT30;43448;52.264;20.644;2023-03-01T07:10:01;24.42;26.53
57624;SHT30;43448;52.264;20.644;2023-03-01T07:20:01;24.43;26.36
57624;SHT30;43448;52.264;20.644;2023-03-01T07:30:02;24.42;26.30
57624;SHT30;43448;52.264;20.644;2023-03-01T07:40:01;24.44;26.12
57624;SHT30;43448;52.264;20.644;2023-03-01T07:50:01;24.42;26.11
57624;SHT30;43448;52.264;20.644;2023-03-01T08:00:01;24.46;26.01
57624;SHT30;43448;52.264;20.644;2023-03-01T08:10:01;24.44;25.95
57624;SHT30;43448;52.264;20.644;2023-03-01T08:20:01;24.46;25.82
57624;SHT30;43448;52.264;20.644;2023-03-01T08:30:01;24.49;25.78
57624;SHT30;43448;52.264;20.644;2023-03-01T08:40:01;24.50;25.75
57624;SHT30;43448;52.264;20.644;2023-03-01T08:50:01;24.56;25.70
57624;SHT30;43448;52.264;20.644;2023-03-01T09:00:01;24.53;25.70
57624;SHT30;43448;52.264;20.644;2023-03-01T09:10:01;24.57;25.72
57624;SHT30;43448;52.264;20.644;2023-03-01T09:20:01;24.59;25.69
57624;SHT30;43448;52.264;20.644;2023-03-01T09:30:01;24.60;25.77
57624;SHT30;43448;52.264;20.644;2023-03-01T09:40:01;24.64;25.73
57624;SHT30;43448;52.264;20.644;2023-03-01T09:50:05;24.63;25.77
57624;SHT30;43448;52.264;20.644;2023-03-01T10:00:12;24.63;25.80
57624;SHT30;43448;52.264;20.644;2023-03-01T10:10:01;24.67;25.82
57624;SHT30;43448;52.264;20.644;2023-03-01T10:20:15;24.69;25.87
57624;SHT30;43448;52.264;20.644;2023-03-01T10:30:07;24.71;25.86
57624;SHT30;43448;52.264;20.644;2023-03-01T10:40:04;24.76;26.02
57624;SHT30;43448;52.264;20.644;2023-03-01T10:50:03;24.79;26.03
57624;SHT30;43448;52.264;20.644;2023-03-01T11:00:15;24.87;25.90
57624;SHT30;43448;52.264;20.644;2023-03-01T11:10:11;24.91;26.04
57624;SHT30;43448;52.264;20.644;2023-03-01T11:20:05;24.93;26.22
57624;SHT30;43448;52.264;20.644;2023-03-01T11:30:04;25.00;26.21
57624;SHT30;43448;52.264;20.644;2023-03-01T11:40:10;25.08;26.17
57624;SHT30;43448;52.264;20.644;2023-03-01T11:50:10;25.11;26.34
57624;SHT30;43448;52.264;20.644;2023-03-01T12:00:11;25.17;26.35
57624;SHT30;43448;52.264;20.644;2023-03-01T12:10:23;25.17;26.36
57624;SHT30;43448;52.264;20.644;2023-03-01T12:20:09;25.19;26.30
57624;SHT30;43448;52.264;20.644;2023-03-01T12:30:15;25.15;26.30
57624;SHT30;43448;52.264;20.644;2023-03-01T12:40:13;25.17;26.25
57624;SHT30;43448;52.264;20.644;2023-03-01T12:50:03;25.19;26.35
57624;SHT30;43448;52.264;20.644;2023-03-01T13:00:10;25.21;26.81
57624;SHT30;43448;52.264;20.644;2023-03-01T13:10:16;25.22;26.78
57624;SHT30;43448;52.264;20.644;2023-03-01T13:20:01;25.24;26.75
57624;SHT30;43448;52.264;20.644;2023-03-01T13:30:01;25.24;26.75
57624;SHT30;43448;52.264;20.644;2023-03-01T13:40:56;25.19;26.79
57624;SHT30;43448;52.264;20.644;2023-03-01T13:50:03;25.17;26.79
57624;SHT30;43448;52.264;20.644;2023-03-01T14:00:02;25.19;26.73
57624;SHT30;43448;52.264;20.644;2023-03-01T14:10:03;25.21;26.74
57624;SHT30;43448;52.264;20.644;2023-03-01T14:20:08;25.22;26.78
57624;SHT30;43448;52.264;20.644;2023-03-01T14:30:03;25.22;26.71
57624;SHT30;43448;52.264;20.644;2023-03-01T14:40:04;25.22;26.71
57624;SHT30;43448;52.264;20.644;2023-03-01T14:50:02;25.17;26.76
57624;SHT30;43448;52.264;20.644;2023-03-01T15:00:04;25.11;26.78
57624;SHT30;43448;52.264;20.644;2023-03-01T15:10:02;25.06;26.96
57624;SHT30;43448;52.264;20.644;2023-03-01T15:20:03;25.03;27.21
57624;SHT30;43448;52.264;20.644;2023-03-01T15:30:02;25.03;27.48
57624;SHT30;43448;52.264;20.644;2023-03-01T15:40:01;24.94;27.72
57624;SHT30;43448;52.264;20.644;2023-03-01T15:50:01;24.93;27.77
57624;SHT30;43448;52.264;20.644;2023-03-01T16:00:01;24.91;27.86
57624;SHT30;43448;52.264;20.644;2023-03-01T16:10:01;24.88;27.95
57624;SHT30;43448;52.264;20.644;2023-03-01T16:20:01;24.87;27.99
57624;SHT30;43448;52.264;20.644;2023-03-01T16:30:01;24.94;28.04
57624;SHT30;43448;52.264;20.644;2023-03-01T16:40:02;24.98;28.02
57624;SHT30;43448;52.264;20.644;2023-03-01T16:50:01;24.91;27.88
57624;SHT30;43448;52.264;20.644;2023-03-01T17:00:01;24.87;28.35
57624;SHT30;43448;52.264;20.644;2023-03-01T17:10:01;24.90;29.17
57624;SHT30;43448;52.264;20.644;2023-03-01T17:20:01;24.88;30.06
57624;SHT30;43448;52.264;20.644;2023-03-01T17:30:01;24.90;29.79
57624;SHT30;43448;52.264;20.644;2023-03-01T17:40:01;24.87;29.09
57624;SHT30;43448;52.264;20.644;2023-03-01T17:50:02;24.84;28.74
57624;SHT30;43448;52.264;20.644;2023-03-01T18:00:02;24.83;28.62
57624;SHT30;43448;52.264;20.644;2023-03-01T18:10:01;24.79;28.55
57624;SHT30;43448;52.264;20.644;2023-03-01T18:20:01;24.74;28.50
57624;SHT30;43448;52.264;20.644;2023-03-01T18:30:01;24.76;28.37
57624;SHT30;43448;52.264;20.644;2023-03-01T18:40:01;24.70;28.37
57624;SHT30;43448;52.264;20.644;2023-03-01T18:50:01;24.66;28.29
57624;SHT30;43448;52.264;20.644;2023-03-01T19:00:02;24.63;28.24
57624;SHT30;43448;52.264;20.644;2023-03-01T19:10:01;24.60;28.27
57624;SHT30;43448;52.264;20.644;2023-03-01T19:20:01;24.63;28.13
57624;SHT30;43448;52.264;20.644;2023-03-01T19:30:01;24.60;28.12
57624;SHT30;43448;52.264;20.644;2023-03-01T19:40:01;24.59;28.31
57624;SHT30;43448;52.264;20.644;2023-03-01T19:50:01;24.56;28.44
57624;SHT30;43448;52.264;20.644;2023-03-01T20:00:01;24.56;28.56
57624;SHT30;43448;52.264;20.644;2023-03-01T20:10:01;24.55;28.51
57624;SHT30;43448;52.264;20.644;2023-03-01T20:20:01;24.53;28.58
57624;SHT30;43448;52.264;20.644;2023-03-01T20:30:01;24.52;28.40
57624;SHT30;43448;52.264;20.644;2023-03-01T20:40:01;24.48;28.38
57624;SHT30;43448;52.264;20.644;2023-03-01T20:50:01;24.46;28.29
57624;SHT30;43448;52.264;20.644;2023-03-01T21:00:02;24.44;28.26
57624;SHT30;43448;52.264;20.644;2023-03-01T21:10:01;24.43;28.08
57624;SHT30;43448;52.264;20.644;2023-03-01T21:20:01;24.40;28.28
57624;SHT30;43448;52.264;20.644;2023-03-01T21:30:01;24.43;28.32
57624;SHT30;43448;52.264;20.644;2023-03-01T21:40:01;24.40;28.50
57624;SHT30;43448;52.264;20.644;2023-03-01T21:50:01;24.40;28.38
57624;SHT30;43448;52.264;20.644;2023-03-01T22:00:01;24.43;28.30
57624;SHT30;43448;52.264;20.644;2023-03-01T22:10:01;24.39;28.25
57624;SHT30;43448;52.264;20.644;2023-03-01T22:20:01;24.40;28.22
57624;SHT30;43448;52.264;20.644;2023-03-01T22:30:03;24.39;28.35
57624;SHT30;43448;52.264;20.644;2023-03-01T22:40:01;24.35;29.60
57624;SHT30;43448;52.264;20.644;2023-03-01T22:50:01;24.39;29.72
57624;SHT30;43448;52.264;20.644;2023-03-01T23:00:01;24.44;29.45
57624;SHT30;43448;52.264;20.644;2023-03-01T23:10:01;24.40;29.39
57624;SHT30;43448;52.264;20.644;2023-03-01T23:20:01;24.48;28.92
57624;SHT30;43448;52.264;20.644;2023-03-01T23:30:01;24.43;29.67
57624;SHT30;43448;52.264;20.644;2023-03-01T23:40:01;24.42;29.55
57624;SHT30;43448;52.264;20.644;2023-03-01T23:50:01;24.39;29.92
